createdAt,value
2018-05-12T00:02:28.015Z,19.90
2018-05-12T00:04:57.033Z,19.80
2018-05-12T00:07:25.289Z,20.10
2018-05-12T00:09:54.912Z,19.90
2018-05-12T00:12:23.892Z,20.00
2018-05-12T00:14:52.910Z,20.00
2018-05-12T00:17:21.162Z,19.90
2018-05-12T00:19:50.176Z,20.00
2018-05-12T00:22:19.176Z,19.90
2018-05-12T00:24:48.196Z,19.90
2018-05-12T00:27:16.509Z,19.80
2018-05-12T00:29:46.075Z,19.80
2018-05-12T00:32:15.487Z,19.80
2018-05-12T00:34:43.739Z,19.60
2018-05-12T00:37:11.971Z,19.90
2018-05-12T00:39:40.205Z,19.70
2018-05-12T00:42:09.233Z,19.70
2018-05-12T00:44:37.468Z,19.70
2018-05-12T00:47:05.708Z,19.80
2018-05-12T00:49:33.940Z,19.70
2018-05-12T00:52:02.225Z,19.60
2018-05-12T00:54:31.248Z,19.50
2018-05-12T00:56:59.482Z,19.70
2018-05-12T00:59:27.729Z,19.70
2018-05-12T01:01:55.949Z,19.50
2018-05-12T01:04:24.192Z,19.40
2018-05-12T01:06:52.445Z,19.70
2018-05-12T01:09:20.700Z,19.40
2018-05-12T01:11:49.692Z,19.50
2018-05-12T01:14:18.718Z,19.40
2018-05-12T01:16:46.978Z,19.50
2018-05-12T01:19:15.197Z,19.40
2018-05-12T01:21:43.464Z,19.50
2018-05-12T01:24:11.694Z,19.40
2018-05-12T01:26:39.930Z,19.30
2018-05-12T01:29:08.176Z,19.30
2018-05-12T01:31:37.181Z,19.30
2018-05-12T01:34:05.442Z,19.10
2018-05-12T01:36:34.441Z,19.30
2018-05-12T01:39:03.449Z,19.30
2018-05-12T01:41:32.453Z,19.30
2018-05-12T01:44:00.721Z,19.30
2018-05-12T01:46:29.714Z,19.10
2018-05-12T01:48:58.715Z,19.00
2018-05-12T01:51:27.725Z,19.40
2018-05-12T01:53:56.714Z,19.00
2018-05-12T01:56:25.736Z,18.90
2018-05-12T01:58:53.968Z,19.00
2018-05-12T02:01:22.225Z,19.20
2018-05-12T02:03:50.464Z,19.10
2018-05-12T02:06:18.712Z,19.00
2018-05-12T02:08:46.961Z,18.90
2018-05-12T02:11:15.231Z,18.70
2018-05-12T02:13:43.470Z,19.00
2018-05-12T02:16:12.487Z,19.00
2018-05-12T02:18:41.668Z,18.90
2018-05-12T02:21:10.670Z,19.00
2018-05-12T02:23:39.677Z,18.80
2018-05-12T02:26:07.929Z,18.80
2018-05-12T02:28:36.162Z,18.60
2018-05-12T02:31:04.411Z,18.90
2018-05-12T02:33:33.473Z,18.40
2018-05-12T02:36:01.701Z,18.70
2018-05-12T02:38:29.969Z,18.20
2018-05-12T02:40:58.995Z,18.20
2018-05-12T02:43:27.251Z,18.30
2018-05-12T02:45:56.246Z,18.40
2018-05-12T02:48:25.253Z,18.20
2018-05-12T02:50:53.497Z,18.20
2018-05-12T02:53:22.547Z,18.10
2018-05-12T02:55:50.844Z,18.30
2018-05-12T02:58:19.052Z,18.00
2018-05-12T03:00:47.285Z,18.40
2018-05-12T03:03:15.542Z,18.20
2018-05-12T03:05:44.549Z,18.10
2018-05-12T03:08:12.820Z,18.20
2018-05-12T03:10:41.816Z,18.00
2018-05-12T03:13:10.097Z,18.10
2018-05-12T03:15:39.099Z,18.00
2018-05-12T03:18:07.367Z,17.90
2018-05-12T03:20:36.387Z,17.70
2018-05-12T03:23:04.624Z,17.90
2018-05-12T03:25:32.874Z,17.70
2018-05-12T03:28:01.123Z,17.90
2018-05-12T03:30:29.374Z,17.90
2018-05-12T03:32:58.385Z,17.90
2018-05-12T03:35:27.420Z,18.00
2018-05-12T03:37:55.662Z,17.90
2018-05-12T03:40:23.936Z,17.90
2018-05-12T03:42:52.932Z,17.80
2018-05-12T03:45:21.925Z,17.70
2018-05-12T03:47:50.948Z,17.90
2018-05-12T03:50:19.217Z,18.00
2018-05-12T03:52:47.495Z,17.70
2018-05-12T03:55:16.491Z,17.80
2018-05-12T03:57:45.581Z,17.60
2018-05-12T04:00:13.733Z,17.50
2018-05-12T04:02:42.016Z,17.60
2018-05-12T04:05:21.969Z,17.50
2018-05-12T04:08:01.956Z,17.60
2018-05-12T04:10:41.876Z,17.70
2018-05-12T04:13:10.901Z,17.40
2018-05-12T04:15:39.160Z,17.50
2018-05-12T04:18:08.159Z,17.50
2018-05-12T04:20:37.176Z,17.40
2018-05-12T04:23:05.412Z,17.50
2018-05-12T04:25:33.655Z,17.30
2018-05-12T04:28:02.766Z,17.30
2018-05-12T04:30:31.016Z,17.50
2018-05-12T04:32:59.256Z,17.50
2018-05-12T04:35:27.517Z,17.30
2018-05-12T04:37:55.772Z,17.20
2018-05-12T04:40:24.012Z,17.40
2018-05-12T04:42:53.053Z,17.10
2018-05-12T04:45:21.282Z,17.40
2018-05-12T04:47:49.516Z,17.40
2018-05-12T04:50:17.791Z,17.50
2018-05-12T04:52:46.041Z,17.30
2018-05-12T04:55:14.234Z,17.50
2018-05-12T04:57:42.492Z,17.60
2018-05-12T05:00:11.498Z,17.70
2018-05-12T05:02:40.516Z,17.70
2018-05-12T05:05:08.755Z,17.60
2018-05-12T05:07:37.012Z,17.60
2018-05-12T05:10:05.298Z,17.60
2018-05-12T05:12:34.245Z,17.70
2018-05-12T05:15:02.523Z,17.50
2018-05-12T05:17:30.760Z,17.50
2018-05-12T05:19:59.028Z,17.60
2018-05-12T05:22:27.248Z,17.60
2018-05-12T05:24:56.269Z,17.80
2018-05-12T05:27:24.513Z,17.90
2018-05-12T05:29:53.519Z,17.70
2018-05-12T05:32:22.554Z,17.90
2018-05-12T05:34:50.802Z,17.90
2018-05-12T05:37:19.793Z,17.90
2018-05-12T05:39:48.832Z,17.90
2018-05-12T05:42:17.057Z,17.80
2018-05-12T05:44:45.294Z,17.80
2018-05-12T05:47:13.556Z,18.10
2018-05-12T05:49:41.796Z,18.10
2018-05-12T05:52:10.025Z,18.10
2018-05-12T05:54:38.275Z,18.00
2018-05-12T05:57:07.312Z,18.20
2018-05-12T05:59:35.610Z,18.50
2018-05-12T06:02:03.886Z,18.30
2018-05-12T06:04:32.155Z,18.80
2018-05-12T06:07:00.483Z,18.80
2018-05-12T06:09:29.437Z,18.80
2018-05-12T06:11:57.672Z,18.80
2018-05-12T06:14:26.698Z,18.70
2018-05-12T06:16:54.949Z,18.70
2018-05-12T06:19:23.981Z,18.90
2018-05-12T06:21:52.282Z,18.80
2018-05-12T06:24:20.540Z,19.10
2018-05-12T06:26:49.301Z,19.10
2018-05-12T06:29:17.649Z,18.90
2018-05-12T06:31:45.892Z,19.20
2018-05-12T06:34:14.159Z,19.20
2018-05-12T06:36:42.420Z,19.50
2018-05-12T06:39:11.458Z,19.40
2018-05-12T06:41:39.698Z,19.40
2018-05-12T06:44:08.722Z,19.50
2018-05-12T06:46:37.705Z,19.80
2018-05-12T06:49:05.976Z,19.50
2018-05-12T06:51:34.994Z,19.50
2018-05-12T06:54:03.235Z,19.70
2018-05-12T06:56:31.500Z,19.70
2018-05-12T06:58:59.724Z,19.80
2018-05-12T07:01:28.048Z,19.50
2018-05-12T07:03:57.030Z,20.00
2018-05-12T07:06:25.265Z,19.90
2018-05-12T07:08:54.284Z,20.10
2018-05-12T07:11:22.531Z,20.30
2018-05-12T07:13:50.784Z,20.10
2018-05-12T07:16:19.064Z,20.20
2018-05-12T07:18:47.288Z,20.30
2018-05-12T07:21:16.302Z,20.50
2018-05-12T07:23:44.549Z,20.50
2018-05-12T07:26:12.807Z,20.60
2018-05-12T07:28:41.047Z,20.60
2018-05-12T07:31:09.295Z,20.70
2018-05-12T07:33:37.524Z,20.60
2018-05-12T07:36:05.757Z,20.60
2018-05-12T07:38:34.768Z,21.00
2018-05-12T07:41:04.791Z,21.10
2018-05-12T07:43:33.807Z,20.90
2018-05-12T07:46:02.047Z,21.20
2018-05-12T07:48:30.291Z,21.30
2018-05-12T07:50:58.541Z,21.20
2018-05-12T07:53:26.795Z,21.30
2018-05-12T07:55:55.795Z,21.30
2018-05-12T07:58:24.801Z,21.40
2018-05-12T08:00:53.045Z,21.40
2018-05-12T08:03:21.350Z,21.50
2018-05-12T08:05:49.538Z,21.50
2018-05-12T08:08:18.556Z,21.70
2018-05-12T08:10:46.818Z,21.70
2018-05-12T08:13:15.817Z,21.80
2018-05-12T08:15:44.833Z,21.80
2018-05-12T08:18:13.097Z,21.80
2018-05-12T08:20:42.104Z,22.10
2018-05-12T08:23:10.390Z,22.10
2018-05-12T08:25:38.645Z,22.20
2018-05-12T08:28:07.683Z,22.30
2018-05-12T08:30:36.128Z,22.30
2018-05-12T08:33:05.177Z,22.50
2018-05-12T08:35:33.457Z,22.50
2018-05-12T08:38:01.696Z,22.60
2018-05-12T08:40:30.097Z,22.70
2018-05-12T08:42:58.972Z,22.60
2018-05-12T08:45:28.007Z,22.60
2018-05-12T08:47:56.342Z,22.70
2018-05-12T08:50:25.346Z,22.90
2018-05-12T08:52:54.391Z,22.90
2018-05-12T08:55:22.627Z,22.80
2018-05-12T08:57:50.852Z,22.80
2018-05-12T09:00:19.115Z,22.90
2018-05-12T09:02:47.405Z,23.00
2018-05-12T09:05:15.663Z,23.00
2018-05-12T09:07:43.891Z,23.10
2018-05-12T09:10:12.161Z,23.20
2018-05-12T09:12:40.398Z,23.20
2018-05-12T09:15:08.662Z,23.20
2018-05-12T09:17:37.647Z,23.20
2018-05-12T09:20:06.696Z,23.20
2018-05-12T09:22:34.977Z,23.20
2018-05-12T09:25:03.228Z,23.10
2018-05-12T09:27:32.292Z,23.10
2018-05-12T09:30:00.663Z,23.10
2018-05-12T09:32:28.892Z,23.20
2018-05-12T09:34:57.141Z,23.30
2018-05-12T09:37:25.445Z,23.30
2018-05-12T09:39:54.466Z,23.40
2018-05-12T09:42:22.769Z,23.40
2018-05-12T09:44:51.769Z,23.50
2018-05-12T09:47:20.742Z,23.60
2018-05-12T09:49:48.988Z,23.60
2018-05-12T09:52:18.005Z,23.60
2018-05-12T09:54:47.021Z,23.60
2018-05-12T09:57:15.281Z,23.60
2018-05-12T09:59:43.513Z,23.70
2018-05-12T10:02:11.760Z,23.80
2018-05-12T10:04:40.025Z,23.90
2018-05-12T10:07:09.062Z,24.10
2018-05-12T10:09:37.303Z,24.00
2018-05-12T10:12:06.319Z,23.90
2018-05-12T10:14:34.567Z,23.90
2018-05-12T10:17:03.565Z,23.70
2018-05-12T10:19:32.584Z,23.70
2018-05-12T10:22:00.831Z,23.70
2018-05-12T10:24:29.853Z,23.70
2018-05-12T10:26:58.104Z,23.70
2018-05-12T10:29:27.111Z,23.90
2018-05-12T10:31:56.162Z,24.10
2018-05-12T10:34:24.399Z,24.10
2018-05-12T10:36:52.653Z,24.30
2018-05-12T10:39:20.901Z,24.30
2018-05-12T10:41:49.169Z,24.50
2018-05-12T10:44:17.440Z,24.50
2018-05-12T10:46:46.428Z,24.40
2018-05-12T10:49:14.677Z,24.40
2018-05-12T10:51:43.700Z,24.60
2018-05-12T10:54:11.969Z,24.60
2018-05-12T10:56:40.964Z,24.80
2018-05-12T10:59:09.972Z,24.80
2018-05-12T11:01:38.978Z,24.80
2018-05-12T11:04:07.239Z,24.80
2018-05-12T11:06:35.509Z,24.80
2018-05-12T11:09:03.769Z,24.80
2018-05-12T11:11:32.006Z,24.80
2018-05-12T11:14:00.276Z,24.70
2018-05-12T11:16:28.529Z,24.80
2018-05-12T11:18:56.781Z,24.80
2018-05-12T11:21:24.998Z,24.90
2018-05-12T11:23:54.005Z,25.00
2018-05-12T11:26:23.033Z,25.10
2018-05-12T11:28:51.277Z,25.00
2018-05-12T11:31:20.289Z,25.10
2018-05-12T11:33:48.538Z,25.10
2018-05-12T11:36:17.579Z,25.10
2018-05-12T11:38:45.873Z,25.10
2018-05-12T11:41:14.186Z,25.10
2018-05-12T11:43:43.107Z,25.10
2018-05-12T11:46:12.110Z,25.10
2018-05-12T11:48:41.139Z,25.10
2018-05-12T11:51:09.411Z,25.10
2018-05-12T11:53:37.678Z,25.20
2018-05-12T11:56:05.955Z,25.20
2018-05-12T11:58:34.969Z,25.20
2018-05-12T12:01:03.214Z,25.20
2018-05-12T12:03:32.237Z,25.20
2018-05-12T12:06:00.479Z,25.20
2018-05-12T12:08:28.736Z,25.30
2018-05-12T12:10:56.968Z,25.40
2018-05-12T12:13:26.003Z,25.50
2018-05-12T12:15:54.228Z,25.50
2018-05-12T12:18:23.228Z,25.30
2018-05-12T12:20:52.253Z,25.40
2018-05-12T12:23:20.502Z,25.40
2018-05-12T12:25:49.509Z,25.60
2018-05-12T12:28:18.546Z,25.60
2018-05-12T12:30:46.814Z,25.60
2018-05-12T12:33:15.066Z,25.60
2018-05-12T12:35:43.313Z,25.60
2018-05-12T12:38:11.569Z,25.70
2018-05-12T12:40:39.838Z,25.80
2018-05-12T12:43:08.081Z,25.80
2018-05-12T12:45:37.097Z,25.90
2018-05-12T12:48:05.348Z,25.90
2018-05-12T12:50:33.594Z,25.90
2018-05-12T12:53:01.851Z,25.90
2018-05-12T12:55:30.085Z,25.90
2018-05-12T12:57:58.313Z,25.90
2018-05-12T13:00:26.556Z,26.00
2018-05-12T13:02:55.574Z,26.00
2018-05-12T13:05:24.572Z,26.00
2018-05-12T13:07:52.860Z,26.00
2018-05-12T13:10:21.102Z,26.00
2018-05-12T13:12:49.339Z,26.00
2018-05-12T13:15:17.593Z,26.10
2018-05-12T13:17:45.838Z,26.10
2018-05-12T13:20:14.100Z,26.10
2018-05-12T13:22:42.421Z,26.00
2018-05-12T13:25:11.457Z,26.20
2018-05-12T13:27:39.731Z,26.20
2018-05-12T13:30:07.991Z,26.30
2018-05-12T13:32:36.253Z,26.30
2018-05-12T13:35:05.256Z,26.30
2018-05-12T13:37:34.289Z,26.40
2018-05-12T13:40:02.604Z,26.30
2018-05-12T13:42:30.835Z,26.40
2018-05-12T13:44:59.106Z,26.50
2018-05-12T13:47:28.200Z,26.50
2018-05-12T13:49:56.505Z,26.50
2018-05-12T13:52:24.748Z,26.50
2018-05-12T13:54:53.783Z,26.60
2018-05-12T13:57:22.058Z,26.60
2018-05-12T13:59:50.315Z,26.60
2018-05-12T14:02:19.377Z,26.50
2018-05-12T14:04:47.674Z,26.50
2018-05-12T14:07:15.958Z,26.50
2018-05-12T14:09:44.295Z,26.50
2018-05-12T14:12:12.543Z,26.50
2018-05-12T14:14:41.547Z,26.40
2018-05-12T14:17:11.546Z,26.40
2018-05-12T14:19:40.543Z,26.50
2018-05-12T14:22:09.543Z,26.60
2018-05-12T14:24:37.918Z,26.60
2018-05-12T14:27:06.244Z,26.60
2018-05-12T14:29:34.594Z,26.60
2018-05-12T14:32:03.646Z,26.40
2018-05-12T14:34:31.884Z,26.40
2018-05-12T14:37:00.198Z,26.40
2018-05-12T14:39:28.560Z,26.40
2018-05-12T14:41:56.827Z,26.50
2018-05-12T14:44:25.207Z,26.50
2018-05-12T14:46:54.297Z,26.60
2018-05-12T14:49:22.511Z,26.60
2018-05-12T14:51:50.780Z,26.60
2018-05-12T14:54:19.987Z,26.70
2018-05-12T14:56:48.253Z,26.70
2018-05-12T14:59:17.294Z,26.70
2018-05-12T15:01:45.640Z,26.70
2018-05-12T15:04:14.661Z,26.70
2018-05-12T15:06:42.920Z,26.70
2018-05-12T15:09:11.172Z,26.50
2018-05-12T15:11:40.201Z,26.50
2018-05-12T15:14:08.469Z,26.50
2018-05-12T15:16:37.490Z,26.70
2018-05-12T15:19:05.771Z,26.70
2018-05-12T15:21:34.013Z,26.80
2018-05-12T15:24:02.266Z,26.80
2018-05-12T15:26:30.502Z,26.70
2018-05-12T15:28:58.751Z,26.70
2018-05-12T15:31:27.775Z,26.80
2018-05-12T15:33:56.776Z,26.90
2018-05-12T15:36:25.025Z,26.90
2018-05-12T15:38:53.260Z,26.90
2018-05-12T15:41:21.502Z,26.90
2018-05-12T15:43:50.529Z,26.80
2018-05-12T15:46:18.765Z,26.80
2018-05-12T15:48:47.048Z,26.80
2018-05-12T15:51:16.071Z,26.90
2018-05-12T15:53:44.339Z,26.90
2018-05-12T15:56:12.583Z,26.90
2018-05-12T15:58:40.828Z,26.90
2018-05-12T16:01:09.061Z,26.90
2018-05-12T16:03:38.088Z,26.90
2018-05-12T16:06:06.328Z,26.90
2018-05-12T16:08:35.342Z,27.00
2018-05-12T16:11:04.401Z,27.00
2018-05-12T16:13:32.644Z,26.90
2018-05-12T16:16:01.847Z,26.90
2018-05-12T16:18:30.117Z,26.80
2018-05-12T16:20:59.135Z,26.90
2018-05-12T16:23:27.394Z,26.90
2018-05-12T16:25:55.654Z,26.80
2018-05-12T16:28:24.664Z,26.80
2018-05-12T16:30:53.667Z,26.70
2018-05-12T16:33:22.694Z,26.70
2018-05-12T16:35:50.903Z,26.70
2018-05-12T16:38:19.204Z,26.70
2018-05-12T16:40:47.441Z,26.80
2018-05-12T16:43:15.697Z,26.80
2018-05-12T16:45:43.942Z,26.80
2018-05-12T16:48:12.193Z,26.80
2018-05-12T16:50:40.469Z,26.70
2018-05-12T16:53:08.680Z,26.70
2018-05-12T16:55:36.926Z,26.60
2018-05-12T16:58:05.217Z,26.60
2018-05-12T17:00:33.441Z,26.50
2018-05-12T17:03:01.677Z,26.60
2018-05-12T17:05:30.033Z,26.60
2018-05-12T17:07:58.285Z,26.50
2018-05-12T17:10:27.283Z,26.30
2018-05-12T17:12:56.455Z,26.30
2018-05-12T17:15:24.738Z,26.40
2018-05-12T17:17:53.016Z,26.40
2018-05-12T17:20:22.147Z,26.40
2018-05-12T17:22:50.387Z,26.30
2018-05-12T17:25:19.613Z,26.30
2018-05-12T17:27:47.828Z,26.30
2018-05-12T17:30:16.083Z,26.30
2018-05-12T17:32:44.500Z,26.30
2018-05-12T17:35:12.760Z,26.30
2018-05-12T17:37:40.997Z,26.10
2018-05-12T17:40:09.439Z,26.10
2018-05-12T17:42:38.548Z,26.10
2018-05-12T17:45:06.853Z,26.10
2018-05-12T17:47:35.072Z,26.10
2018-05-12T17:50:04.245Z,26.00
2018-05-12T17:52:32.512Z,26.00
2018-05-12T17:55:00.743Z,26.00
2018-05-12T17:57:29.013Z,26.00
2018-05-12T17:59:58.061Z,26.00
2018-05-12T18:02:26.313Z,26.00
2018-05-12T18:04:54.524Z,26.00
2018-05-12T18:07:22.777Z,26.00
2018-05-12T18:09:51.005Z,25.90
2018-05-12T18:12:19.240Z,25.90
2018-05-12T18:14:47.503Z,25.90
2018-05-12T18:17:15.809Z,25.80
2018-05-12T18:19:44.786Z,25.90
2018-05-12T18:22:13.141Z,25.80
2018-05-12T18:24:41.381Z,25.80
2018-05-12T18:27:09.621Z,25.80
2018-05-12T18:29:37.853Z,25.80
2018-05-12T18:32:06.101Z,25.80
2018-05-12T18:34:34.335Z,25.70
2018-05-12T18:37:03.329Z,25.80
2018-05-12T18:39:32.366Z,25.80
2018-05-12T18:42:00.610Z,25.80
2018-05-12T18:44:28.853Z,25.70
2018-05-12T18:46:57.127Z,25.80
2018-05-12T18:49:25.345Z,25.80
2018-05-12T18:51:54.352Z,25.60
2018-05-12T18:54:23.359Z,25.60
2018-05-12T18:56:52.394Z,25.60
2018-05-12T18:59:20.621Z,25.50
2018-05-12T19:01:49.632Z,25.50
2018-05-12T19:04:17.884Z,25.40
2018-05-12T19:06:46.127Z,25.40
2018-05-12T19:09:14.376Z,25.40
2018-05-12T19:11:42.684Z,25.40
2018-05-12T19:14:10.940Z,25.40
2018-05-12T19:16:39.316Z,25.40
2018-05-12T19:19:07.634Z,25.40
2018-05-12T19:21:35.873Z,25.40
2018-05-12T19:24:04.881Z,25.30
2018-05-12T19:26:34.006Z,25.20
2018-05-12T19:29:02.275Z,25.20
2018-05-12T19:31:30.532Z,25.20
2018-05-12T19:33:59.585Z,25.10
2018-05-12T19:36:27.817Z,25.10
2018-05-12T19:38:56.835Z,25.10
2018-05-12T19:41:25.097Z,25.10
2018-05-12T19:43:53.359Z,25.10
2018-05-12T19:46:22.389Z,24.90
2018-05-12T19:48:50.637Z,24.90
2018-05-12T19:51:19.640Z,24.90
2018-05-12T19:53:48.667Z,24.80
2018-05-12T19:56:16.927Z,24.80
2018-05-12T19:58:45.931Z,24.60
2018-05-12T20:01:14.196Z,24.60
2018-05-12T20:03:43.235Z,24.50
2018-05-12T20:06:11.521Z,24.50
2018-05-12T20:08:39.759Z,24.50
2018-05-12T20:11:08.769Z,24.40
2018-05-12T20:13:37.068Z,24.40
2018-05-12T20:16:05.432Z,24.30
2018-05-12T20:18:33.588Z,24.30
2018-05-12T20:21:01.845Z,24.20
2018-05-12T20:23:30.069Z,24.20
2018-05-12T20:25:58.318Z,24.10
2018-05-12T20:28:26.582Z,24.00
2018-05-12T20:30:54.953Z,23.90
2018-05-12T20:33:23.904Z,23.80
2018-05-12T20:35:52.248Z,23.80
2018-05-12T20:38:21.482Z,23.80
2018-05-12T20:40:50.525Z,23.70
2018-05-12T20:43:18.806Z,23.70
2018-05-12T20:45:47.036Z,23.70
2018-05-12T20:48:16.042Z,23.60
2018-05-12T20:50:45.057Z,23.50
2018-05-12T20:53:13.641Z,23.50
2018-05-12T20:55:41.899Z,23.50
2018-05-12T20:58:11.109Z,23.50
2018-05-12T21:00:40.113Z,23.50
2018-05-12T21:03:08.360Z,23.40
2018-05-12T21:05:36.682Z,23.40
2018-05-12T21:08:04.944Z,23.40
2018-05-12T21:10:34.029Z,23.40
2018-05-12T21:13:02.361Z,23.40
2018-05-12T21:15:30.768Z,23.40
2018-05-12T21:17:59.033Z,23.40
2018-05-12T21:20:27.342Z,23.40
2018-05-12T21:22:55.585Z,23.40
2018-05-12T21:25:23.817Z,23.40
2018-05-12T21:27:52.864Z,23.30
2018-05-12T21:30:21.192Z,23.30
2018-05-12T21:32:49.433Z,23.20
2018-05-12T21:35:17.729Z,23.20
2018-05-12T21:37:45.957Z,23.20
2018-05-12T21:40:14.964Z,23.20
2018-05-12T21:42:43.216Z,23.20
2018-05-12T21:45:11.432Z,23.20
2018-05-12T21:47:39.703Z,23.10
2018-05-12T21:50:08.048Z,23.00
2018-05-12T21:52:36.281Z,22.90
2018-05-12T21:55:04.518Z,22.90
2018-05-12T21:57:33.569Z,22.80
2018-05-12T22:00:01.793Z,22.80
2018-05-12T22:02:30.811Z,22.80
2018-05-12T22:04:59.817Z,22.80
2018-05-12T22:07:28.094Z,22.70
2018-05-12T22:09:56.335Z,22.80
2018-05-12T22:12:24.606Z,22.70
2018-05-12T22:14:52.824Z,22.70
2018-05-12T22:17:21.078Z,22.50
2018-05-12T22:19:49.373Z,22.50
2018-05-12T22:22:18.383Z,22.10
2018-05-12T22:24:46.633Z,22.00
2018-05-12T22:27:14.983Z,22.10
2018-05-12T22:29:43.210Z,22.10
2018-05-12T22:32:12.229Z,22.00
2018-05-12T22:34:40.472Z,22.00
2018-05-12T22:37:08.712Z,22.10
2018-05-12T22:39:36.957Z,22.20
2018-05-12T22:42:05.978Z,22.30
2018-05-12T22:44:34.223Z,22.30
2018-05-12T22:47:02.483Z,22.30
2018-05-12T22:49:30.715Z,22.30
2018-05-12T22:51:58.977Z,22.40
2018-05-12T22:54:27.996Z,22.30
2018-05-12T22:56:56.227Z,22.30
2018-05-12T22:59:24.481Z,22.30
2018-05-12T23:01:52.709Z,22.30
2018-05-12T23:04:21.724Z,22.30
2018-05-12T23:06:49.991Z,22.20
2018-05-12T23:09:18.993Z,22.20
2018-05-12T23:11:47.981Z,22.10
2018-05-12T23:14:17.017Z,22.00
2018-05-12T23:16:45.266Z,22.00
2018-05-12T23:19:13.500Z,22.00
2018-05-12T23:21:41.749Z,21.90
2018-05-12T23:24:10.006Z,21.90
2018-05-12T23:26:38.254Z,21.90
2018-05-12T23:29:06.488Z,21.80
2018-05-12T23:31:34.750Z,21.80
2018-05-12T23:34:02.987Z,21.70
2018-05-12T23:36:31.204Z,21.70
2018-05-12T23:38:59.466Z,21.70
2018-05-12T23:41:28.458Z,21.70
2018-05-12T23:43:56.688Z,21.60
2018-05-12T23:46:24.944Z,21.70
2018-05-12T23:48:53.180Z,21.60
2018-05-12T23:51:21.481Z,21.60
2018-05-12T23:53:49.682Z,21.50
2018-05-12T23:56:17.908Z,21.50
2018-05-12T23:58:46.129Z,21.40
